createdAt,value
2022-08-16T00:04:34.492Z,23.69
2022-08-16T00:09:41.684Z,23.64
2022-08-16T00:14:47.932Z,23.59
2022-08-16T00:19:55.181Z,23.56
2022-08-16T00:25:04.919Z,23.51
2022-08-16T00:30:19.439Z,23.46
2022-08-16T00:35:39.614Z,23.42
2022-08-16T00:40:50.907Z,23.39
2022-08-16T00:46:33.078Z,23.36
2022-08-16T00:51:29.508Z,23.33
2022-08-16T00:56:56.196Z,23.30
2022-08-16T01:02:30.203Z,23.27
2022-08-16T01:07:49.770Z,23.24
2022-08-16T01:12:55.717Z,23.21
2022-08-16T01:18:07.359Z,23.18
2022-08-16T01:23:58.685Z,23.15
2022-08-16T01:29:06.516Z,23.12
2022-08-16T01:34:25.150Z,23.08
2022-08-16T01:39:35.545Z,23.05
2022-08-16T01:44:41.959Z,23.01
2022-08-16T01:50:43.517Z,22.98
2022-08-16T01:55:14.616Z,22.94
2022-08-16T02:00:21.899Z,22.90
2022-08-16T02:05:36.386Z,22.87
2022-08-16T02:10:41.755Z,22.84
2022-08-16T02:15:47.350Z,22.81
2022-08-16T02:20:56.031Z,22.78
2022-08-16T02:26:02.968Z,22.75
2022-08-16T02:31:10.535Z,22.73
2022-08-16T02:36:47.927Z,22.70
2022-08-16T02:41:43.835Z,22.65
2022-08-16T02:46:49.863Z,22.63
2022-08-16T02:51:59.697Z,22.61
2022-08-16T02:57:07.228Z,22.56
2022-08-16T03:02:13.879Z,22.53
2022-08-16T03:07:27.340Z,22.49
2022-08-16T03:12:36.814Z,22.45
2022-08-16T03:18:00.418Z,22.40
2022-08-16T03:23:08.598Z,22.34
2022-08-16T03:28:14.438Z,22.28
2022-08-16T03:33:23.306Z,22.23
2022-08-16T03:38:35.504Z,22.17
2022-08-16T03:43:51.832Z,22.12
2022-08-16T03:49:00.600Z,22.07
2022-08-16T03:54:12.359Z,22.01
2022-08-16T03:59:19.679Z,21.97
2022-08-16T04:04:33.525Z,21.92
2022-08-16T04:09:41.722Z,21.87
2022-08-16T04:14:48.229Z,21.82
2022-08-16T04:19:54.955Z,21.79
2022-08-16T04:25:04.499Z,21.76
2022-08-16T04:30:32.151Z,21.75
2022-08-16T04:35:41.797Z,21.75
2022-08-16T04:40:48.112Z,21.75
2022-08-16T04:46:00.680Z,21.76
2022-08-16T04:51:12.283Z,21.80
2022-08-16T04:56:26.497Z,21.85
2022-08-16T05:01:55.961Z,21.93
2022-08-16T05:06:59.000Z,22.01
2022-08-16T05:12:21.932Z,22.12
2022-08-16T05:17:28.666Z,22.25
2022-08-16T05:22:39.659Z,22.37
2022-08-16T05:27:52.136Z,22.49
2022-08-16T05:32:58.526Z,22.63
2022-08-16T05:38:04.193Z,22.72
2022-08-16T05:43:32.046Z,22.81
2022-08-16T05:48:38.064Z,22.93
2022-08-16T05:53:47.394Z,23.05
2022-08-16T05:58:55.708Z,23.16
2022-08-16T06:04:01.306Z,23.25
2022-08-16T06:09:11.795Z,23.33
2022-08-16T06:14:20.148Z,23.41
2022-08-16T06:19:26.387Z,23.47
2022-08-16T06:24:54.280Z,23.51
2022-08-16T06:30:03.141Z,23.57
2022-08-16T06:35:10.326Z,23.61
2022-08-16T06:40:17.715Z,23.73
2022-08-16T06:45:29.438Z,23.85
2022-08-16T06:50:45.757Z,24.01
2022-08-16T06:55:53.752Z,24.17
2022-08-16T07:01:00.997Z,24.33
2022-08-16T07:06:08.812Z,24.48
2022-08-16T07:11:45.997Z,24.63
2022-08-16T07:16:48.662Z,24.79
2022-08-16T07:21:59.684Z,24.95
2022-08-16T07:27:08.416Z,25.11
2022-08-16T07:32:14.875Z,25.27
2022-08-16T07:37:22.349Z,25.40
2022-08-16T07:42:54.883Z,25.55
2022-08-16T07:48:11.012Z,25.68
2022-08-16T07:53:20.123Z,25.82
2022-08-16T07:58:34.942Z,25.93
2022-08-16T08:03:51.812Z,26.05
2022-08-16T08:09:01.421Z,26.15
2022-08-16T08:14:07.304Z,26.27
2022-08-16T08:19:19.886Z,26.39
2022-08-16T08:24:32.344Z,26.51
2022-08-16T08:29:40.120Z,26.64
2022-08-16T08:34:49.510Z,26.75
2022-08-16T08:39:57.077Z,26.83
2022-08-16T08:45:04.408Z,26.91
2022-08-16T08:50:13.201Z,27.00
2022-08-16T08:55:39.417Z,27.11
2022-08-16T09:00:51.259Z,27.22
2022-08-16T09:05:59.552Z,27.33
2022-08-16T09:11:07.859Z,27.45
2022-08-16T09:17:02.309Z,27.58
2022-08-16T09:21:43.477Z,27.74
2022-08-16T09:26:52.451Z,27.92
2022-08-16T09:31:58.665Z,28.07
2022-08-16T09:37:17.857Z,28.17
2022-08-16T09:42:25.050Z,28.26
2022-08-16T09:47:56.412Z,28.31
2022-08-16T09:52:55.792Z,28.36
2022-08-16T09:58:03.866Z,28.40
2022-08-16T10:03:11.096Z,28.43
2022-08-16T10:08:26.681Z,28.45
2022-08-16T10:13:34.185Z,28.48
2022-08-16T10:19:00.794Z,28.49
2022-08-16T10:24:06.363Z,28.53
2022-08-16T10:29:12.029Z,28.53
2022-08-16T10:34:32.151Z,28.52
2022-08-16T10:39:42.226Z,28.50
2022-08-16T10:44:54.923Z,28.48
2022-08-16T10:50:01.100Z,28.43
2022-08-16T11:00:36.810Z,28.32
2022-08-16T11:05:59.643Z,28.22
2022-08-16T11:11:12.867Z,28.05
2022-08-16T11:16:26.604Z,27.83
2022-08-16T11:21:32.897Z,27.64
2022-08-16T11:26:40.475Z,27.45
2022-08-16T11:31:54.310Z,27.30
2022-08-16T11:37:01.253Z,27.17
2022-08-16T11:42:16.770Z,27.07
2022-08-16T11:47:32.977Z,27.01
2022-08-16T11:52:39.130Z,26.99
2022-08-16T11:57:57.472Z,26.98
2022-08-16T12:03:03.235Z,26.99
2022-08-16T12:08:10.262Z,27.01
2022-08-16T12:13:18.059Z,27.04
2022-08-16T12:18:26.430Z,27.07
2022-08-16T12:23:32.098Z,27.10
2022-08-16T12:28:54.626Z,27.14
2022-08-16T12:34:01.492Z,27.16
2022-08-16T12:39:07.475Z,27.20
2022-08-16T12:44:13.496Z,27.22
2022-08-16T12:49:25.986Z,27.25
2022-08-16T12:54:36.542Z,27.31
2022-08-16T12:59:43.372Z,27.36
2022-08-16T13:04:49.534Z,27.40
2022-08-16T13:09:58.709Z,27.47
2022-08-16T13:15:04.189Z,27.53
2022-08-16T13:20:12.219Z,27.60
2022-08-16T13:25:20.791Z,27.68
2022-08-16T13:30:37.093Z,27.78
2022-08-16T13:35:55.622Z,27.91
2022-08-16T13:41:08.561Z,28.01
2022-08-16T13:46:14.633Z,28.12
2022-08-16T13:51:24.302Z,28.22
2022-08-16T13:56:34.543Z,28.31
2022-08-16T14:01:43.935Z,28.41
2022-08-16T14:06:50.738Z,28.50
2022-08-16T14:11:56.289Z,28.60
2022-08-16T14:17:03.595Z,28.70
2022-08-16T14:22:13.989Z,28.80
2022-08-16T14:27:23.051Z,28.88
2022-08-16T14:32:34.390Z,28.96
2022-08-16T14:37:42.971Z,29.03
2022-08-16T14:42:49.308Z,29.09
2022-08-16T14:47:56.811Z,29.17
2022-08-16T14:53:03.669Z,29.22
2022-08-16T14:58:10.478Z,29.27
2022-08-16T15:03:25.826Z,29.31
2022-08-16T15:08:36.401Z,29.33
2022-08-16T15:13:43.157Z,29.37
2022-08-16T15:18:49.585Z,29.39
2022-08-16T15:23:55.544Z,29.38
2022-08-16T15:29:01.068Z,29.37
2022-08-16T15:34:06.568Z,29.36
2022-08-16T15:39:27.924Z,29.33
2022-08-16T15:44:52.304Z,29.28
2022-08-16T15:49:59.566Z,29.22
2022-08-16T15:55:23.794Z,29.18
2022-08-16T16:00:33.559Z,29.10
2022-08-16T16:05:39.735Z,29.06
2022-08-16T16:10:54.255Z,29.01
2022-08-16T16:16:03.249Z,28.96
2022-08-16T16:21:12.457Z,28.90
2022-08-16T16:26:26.856Z,28.86
2022-08-16T16:31:33.715Z,28.82
2022-08-16T16:36:48.270Z,28.77
2022-08-16T16:41:54.466Z,28.71
2022-08-16T16:46:59.905Z,28.66
2022-08-16T16:52:06.908Z,28.61
2022-08-16T16:57:33.712Z,28.56
2022-08-16T17:02:49.670Z,28.48
2022-08-16T17:08:00.982Z,28.42
2022-08-16T17:13:09.308Z,28.36
2022-08-16T17:19:15.670Z,28.30
2022-08-16T17:23:58.112Z,28.22
2022-08-16T17:29:11.103Z,28.15
2022-08-16T17:34:30.429Z,28.09
2022-08-16T17:39:45.376Z,28.00
2022-08-16T17:45:04.260Z,27.93
2022-08-16T17:50:11.075Z,27.84
2022-08-16T17:55:22.138Z,27.76
2022-08-16T18:00:28.309Z,27.68
2022-08-16T18:05:34.607Z,27.60
2022-08-16T18:10:40.693Z,27.51
2022-08-16T18:15:46.109Z,27.42
2022-08-16T18:21:09.524Z,27.35
2022-08-16T18:26:14.988Z,27.27
2022-08-16T18:31:20.482Z,27.21
2022-08-16T18:36:26.707Z,27.13
2022-08-16T18:41:37.475Z,27.07
2022-08-16T18:46:44.390Z,27.01
2022-08-16T18:51:51.211Z,26.94
2022-08-16T18:56:58.242Z,26.87
2022-08-16T19:02:05.643Z,26.80
2022-08-16T19:07:11.617Z,26.71
2022-08-16T19:12:17.606Z,26.63
2022-08-16T19:17:43.477Z,26.52
2022-08-16T19:23:05.569Z,26.41
2022-08-16T19:28:49.993Z,26.29
2022-08-16T19:33:38.649Z,26.16
2022-08-16T19:38:43.971Z,26.02
2022-08-16T19:43:50.208Z,25.88
2022-08-16T19:48:55.779Z,25.73
2022-08-16T19:54:01.386Z,25.59
2022-08-16T19:59:40.544Z,25.44
2022-08-16T20:04:33.378Z,25.31
2022-08-16T20:09:39.076Z,25.17
2022-08-16T20:14:45.600Z,25.03
2022-08-16T20:19:51.335Z,24.89
2022-08-16T20:24:57.315Z,24.76
2022-08-16T20:30:03.008Z,24.63
2022-08-16T20:35:12.199Z,24.49
2022-08-16T20:40:34.786Z,24.38
2022-08-16T20:45:41.898Z,24.28
2022-08-16T20:50:47.792Z,24.19
2022-08-16T20:55:53.486Z,24.10
2022-08-16T21:00:59.465Z,24.02
2022-08-16T21:06:06.044Z,23.93
2022-08-16T21:11:11.564Z,23.85
2022-08-16T21:16:19.047Z,23.77
2022-08-16T21:21:24.633Z,23.70
2022-08-16T21:26:39.178Z,23.64
2022-08-16T21:31:45.895Z,23.58
2022-08-16T21:36:51.498Z,23.50
2022-08-16T21:41:56.977Z,23.44
2022-08-16T21:47:02.554Z,23.36
2022-08-16T21:52:09.008Z,23.28
2022-08-16T21:57:15.158Z,23.13
2022-08-16T22:02:21.247Z,23.13
2022-08-16T22:07:27.082Z,23.07
2022-08-16T22:12:33.049Z,23.00
2022-08-16T22:17:39.993Z,22.93
2022-08-16T22:22:45.808Z,22.87
2022-08-16T22:27:51.307Z,22.82
2022-08-16T22:32:56.907Z,22.78
2022-08-16T22:38:55.963Z,22.73
2022-08-16T22:43:28.890Z,22.67
2022-08-16T22:48:39.261Z,22.61
2022-08-16T22:53:48.028Z,22.53
2022-08-16T22:58:53.725Z,22.48
2022-08-16T23:03:59.870Z,22.43
2022-08-16T23:09:05.449Z,22.39
2022-08-16T23:14:11.093Z,22.37
2022-08-16T23:19:17.811Z,22.34
2022-08-16T23:24:24.845Z,22.31
2022-08-16T23:29:30.314Z,22.29
2022-08-16T23:34:37.488Z,22.28
2022-08-16T23:39:44.468Z,22.28
2022-08-16T23:44:57.955Z,22.29
2022-08-16T23:50:04.485Z,22.30
2022-08-16T23:55:10.934Z,22.31
